createdAt,value
2022-09-17T00:01:05.257Z,1.45
2022-09-17T00:03:34.273Z,1.42
2022-09-17T00:06:10.594Z,1.40
2022-09-17T00:08:39.156Z,1.38
2022-09-17T00:11:08.461Z,1.50
2022-09-17T00:13:35.215Z,1.65
2022-09-17T00:16:02.308Z,1.20
2022-09-17T00:18:29.038Z,1.40
2022-09-17T00:20:55.784Z,1.33
2022-09-17T00:23:22.516Z,1.40
2022-09-17T00:25:49.242Z,0.93
2022-09-17T00:28:16.010Z,1.25
2022-09-17T00:30:45.667Z,1.10
2022-09-17T00:33:15.448Z,0.90
2022-09-17T00:35:42.890Z,1.00
2022-09-17T00:38:10.141Z,1.40
2022-09-17T00:40:37.677Z,1.15
2022-09-17T00:43:04.880Z,1.35
2022-09-17T00:45:32.375Z,1.40
2022-09-17T00:48:05.397Z,1.23
2022-09-17T00:50:37.130Z,1.35
2022-09-17T00:53:15.921Z,1.20
2022-09-17T00:56:03.155Z,0.95
2022-09-17T00:58:33.796Z,0.70
2022-09-17T01:01:02.741Z,1.23
2022-09-17T01:03:29.779Z,1.10
2022-09-17T01:06:02.374Z,1.67
2022-09-17T01:08:49.101Z,0.70
2022-09-17T01:11:51.844Z,1.05
2022-09-17T01:14:37.245Z,0.70
2022-09-17T01:17:34.103Z,0.65
2022-09-17T01:20:28.722Z,0.80
2022-09-17T01:23:27.913Z,0.88
2022-09-17T01:26:36.533Z,1.10
2022-09-17T01:29:38.712Z,1.38
2022-09-17T01:32:16.761Z,1.13
2022-09-17T01:35:07.227Z,1.20
2022-09-17T01:37:42.618Z,0.90
2022-09-17T01:40:25.155Z,1.30
2022-09-17T01:43:04.316Z,1.30
2022-09-17T01:45:39.369Z,1.33
2022-09-17T01:48:27.648Z,1.00
2022-09-17T01:51:11.582Z,1.23
2022-09-17T01:53:44.561Z,0.80
2022-09-17T01:56:16.859Z,1.08
2022-09-17T01:58:54.646Z,1.02
2022-09-17T02:01:24.309Z,0.90
2022-09-17T02:04:02.401Z,0.85
2022-09-17T02:06:37.761Z,0.88
2022-09-17T02:09:22.442Z,0.98
2022-09-17T02:11:59.125Z,0.85
2022-09-17T02:14:41.391Z,1.13
2022-09-17T02:17:25.113Z,1.20
2022-09-17T02:19:53.658Z,0.80
2022-09-17T02:22:47.931Z,1.52
2022-09-17T02:25:26.687Z,1.60
2022-09-17T02:28:06.222Z,1.40
2022-09-17T02:30:32.933Z,1.90
2022-09-17T02:33:02.148Z,1.80
2022-09-17T02:35:31.188Z,1.83
2022-09-17T02:37:57.855Z,1.60
2022-09-17T02:40:28.051Z,1.58
2022-09-17T02:43:19.641Z,1.20
2022-09-17T02:46:10.485Z,2.10
2022-09-17T02:49:08.742Z,1.30
2022-09-17T02:51:43.030Z,1.40
2022-09-17T02:54:28.045Z,1.63
2022-09-17T02:57:01.542Z,1.40
2022-09-17T02:59:49.343Z,1.40
2022-09-17T03:02:43.927Z,1.65
2022-09-17T03:05:11.856Z,1.42
2022-09-17T03:07:39.218Z,1.08
2022-09-17T03:10:06.766Z,1.30
2022-09-17T03:12:33.375Z,1.20
2022-09-17T03:15:01.111Z,1.00
2022-09-17T03:17:27.699Z,0.88
2022-09-17T03:19:54.668Z,1.30
2022-09-17T03:22:21.643Z,0.85
2022-09-17T03:24:48.697Z,1.13
2022-09-17T03:27:15.473Z,1.17
2022-09-17T03:29:42.549Z,1.08
2022-09-17T03:32:09.553Z,0.70
2022-09-17T03:34:36.148Z,0.90
2022-09-17T03:37:03.157Z,1.10
2022-09-17T03:39:30.513Z,1.00
2022-09-17T03:41:57.110Z,1.10
2022-09-17T03:44:23.871Z,0.90
2022-09-17T03:46:51.766Z,0.90
2022-09-17T03:49:18.441Z,1.00
2022-09-17T03:51:45.503Z,0.90
2022-09-17T03:54:12.344Z,1.05
2022-09-17T03:56:39.127Z,1.40
2022-09-17T03:59:06.311Z,1.08
2022-09-17T04:01:33.015Z,1.10
2022-09-17T04:03:59.961Z,1.00
2022-09-17T04:06:26.701Z,1.30
2022-09-17T04:08:53.531Z,0.90
2022-09-17T04:11:20.356Z,0.77
2022-09-17T04:13:47.296Z,0.90
2022-09-17T04:16:14.814Z,0.95
2022-09-17T04:18:41.503Z,1.20
2022-09-17T04:21:08.448Z,0.73
2022-09-17T04:23:35.172Z,0.95
2022-09-17T04:26:01.849Z,1.30
2022-09-17T04:28:28.432Z,0.90
2022-09-17T04:30:55.319Z,1.10
2022-09-17T04:33:22.144Z,1.02
2022-09-17T04:35:48.823Z,1.00
2022-09-17T04:38:18.501Z,1.42
2022-09-17T04:40:46.671Z,1.20
2022-09-17T04:43:14.017Z,1.60
2022-09-17T04:45:40.672Z,1.20
2022-09-17T04:48:07.413Z,1.90
2022-09-17T04:50:34.195Z,1.40
2022-09-17T04:53:00.741Z,1.60
2022-09-17T04:55:27.729Z,0.88
2022-09-17T04:57:54.404Z,1.08
2022-09-17T05:00:23.248Z,1.15
2022-09-17T05:02:52.211Z,0.82
2022-09-17T05:05:20.063Z,1.10
2022-09-17T05:07:46.940Z,1.00
2022-09-17T05:10:17.096Z,1.05
2022-09-17T05:12:57.159Z,1.08
2022-09-17T05:15:25.094Z,0.90
2022-09-17T05:17:52.367Z,1.20
2022-09-17T05:20:20.149Z,0.85
2022-09-17T05:22:49.602Z,1.00
2022-09-17T05:25:18.451Z,0.80
2022-09-17T05:27:45.611Z,1.13
2022-09-17T05:30:13.509Z,1.10
2022-09-17T05:32:40.822Z,1.13
2022-09-17T05:35:09.062Z,1.00
2022-09-17T05:37:37.039Z,1.60
2022-09-17T05:40:08.791Z,0.88
2022-09-17T05:42:35.860Z,1.10
2022-09-17T05:45:02.858Z,0.70
2022-09-17T05:47:29.608Z,0.70
2022-09-17T05:49:56.569Z,0.90
2022-09-17T05:52:28.072Z,0.70
2022-09-17T05:54:55.820Z,1.10
2022-09-17T05:57:23.119Z,0.90
2022-09-17T05:59:50.474Z,0.93
2022-09-17T06:02:17.853Z,0.77
2022-09-17T06:04:44.740Z,0.90
2022-09-17T06:07:11.678Z,0.90
2022-09-17T06:09:40.891Z,0.95
2022-09-17T06:12:08.084Z,0.90
2022-09-17T06:14:35.524Z,1.10
2022-09-17T06:17:02.181Z,0.98
2022-09-17T06:19:28.774Z,0.93
2022-09-17T06:21:55.531Z,0.80
2022-09-17T06:24:22.243Z,1.30
2022-09-17T06:26:48.874Z,0.93
2022-09-17T06:29:15.618Z,0.80
2022-09-17T06:31:44.921Z,0.90
2022-09-17T06:34:12.670Z,0.80
2022-09-17T06:36:39.638Z,1.02
2022-09-17T06:39:07.260Z,0.93
2022-09-17T06:41:34.510Z,0.93
2022-09-17T06:44:05.591Z,0.80
2022-09-17T06:46:35.061Z,0.70
2022-09-17T06:49:04.464Z,0.98
2022-09-17T06:51:31.768Z,0.70
2022-09-17T06:53:58.662Z,0.88
2022-09-17T06:56:25.253Z,1.08
2022-09-17T06:58:53.048Z,0.88
2022-09-17T07:01:20.113Z,0.65
2022-09-17T07:03:49.207Z,0.65
2022-09-17T07:06:15.849Z,0.80
2022-09-17T07:08:42.411Z,0.90
2022-09-17T07:11:09.098Z,1.00
2022-09-17T07:13:35.815Z,0.77
2022-09-17T07:16:05.138Z,0.80
2022-09-17T07:18:32.990Z,1.23
2022-09-17T07:21:01.454Z,0.70
2022-09-17T07:23:31.546Z,0.70
2022-09-17T07:26:00.892Z,0.90
2022-09-17T07:28:28.850Z,0.52
2022-09-17T07:30:56.921Z,0.80
2022-09-17T07:33:26.719Z,0.70
2022-09-17T07:36:01.508Z,0.90
2022-09-17T07:38:30.648Z,0.80
2022-09-17T07:40:58.175Z,0.73
2022-09-17T07:43:32.420Z,0.75
2022-09-17T07:46:01.270Z,0.75
2022-09-17T07:48:30.307Z,0.85
2022-09-17T07:50:59.664Z,0.82
2022-09-17T07:53:28.248Z,0.80
2022-09-17T07:56:11.582Z,0.60
2022-09-17T07:58:39.520Z,0.60
2022-09-17T08:01:12.119Z,0.68
2022-09-17T08:03:40.337Z,0.80
2022-09-17T08:06:09.076Z,0.65
2022-09-17T08:08:38.226Z,0.90
2022-09-17T08:11:08.045Z,0.73
2022-09-17T08:13:35.055Z,0.85
2022-09-17T08:16:04.396Z,0.98
2022-09-17T08:18:32.146Z,0.77
2022-09-17T08:21:00.385Z,0.28
2022-09-17T08:23:28.058Z,0.60
2022-09-17T08:26:00.517Z,0.50
2022-09-17T08:28:30.089Z,0.40
2022-09-17T08:31:10.004Z,0.50
2022-09-17T08:33:39.189Z,0.60
2022-09-17T08:36:08.355Z,0.45
2022-09-17T08:38:38.435Z,0.40
2022-09-17T08:44:08.876Z,0.38
2022-09-17T08:46:51.406Z,0.30
2022-09-17T08:49:27.329Z,0.40
2022-09-17T08:52:31.671Z,0.75
2022-09-17T08:55:23.916Z,0.85
2022-09-17T08:58:03.290Z,0.50
2022-09-17T09:00:39.611Z,0.60
2022-09-17T09:03:06.463Z,0.30
2022-09-17T09:05:46.398Z,0.30
2022-09-17T09:08:36.975Z,0.40
2022-09-17T09:11:15.388Z,0.30
2022-09-17T09:13:49.421Z,0.40
2022-09-17T09:16:18.307Z,0.60
2022-09-17T09:18:47.111Z,0.35
2022-09-17T09:21:44.705Z,0.30
2022-09-17T09:24:26.332Z,0.25
2022-09-17T09:29:31.396Z,0.30
2022-09-17T09:32:15.580Z,0.22
2022-09-17T09:34:44.143Z,0.40
2022-09-17T09:37:34.973Z,0.63
2022-09-17T09:40:24.795Z,0.98
2022-09-17T09:42:55.239Z,0.35
2022-09-17T09:45:44.021Z,0.60
2022-09-17T09:48:30.685Z,0.40
2022-09-17T09:51:07.892Z,0.30
2022-09-17T09:53:46.817Z,0.60
2022-09-17T09:56:36.070Z,0.63
2022-09-17T09:59:07.802Z,0.60
2022-09-17T10:01:40.885Z,0.22
2022-09-17T10:04:26.299Z,0.30
2022-09-17T10:06:59.926Z,0.30
2022-09-17T10:09:28.223Z,0.40
2022-09-17T10:12:02.552Z,0.60
2022-09-17T10:14:36.072Z,0.52
2022-09-17T10:17:21.191Z,0.20
2022-09-17T10:20:00.285Z,0.40
2022-09-17T10:22:31.834Z,0.63
2022-09-17T10:27:29.113Z,0.40
2022-09-17T10:30:24.700Z,0.50
2022-09-17T10:33:14.987Z,0.60
2022-09-17T10:35:55.610Z,0.40
2022-09-17T10:38:32.911Z,0.68
2022-09-17T10:41:26.209Z,0.60
2022-09-17T10:43:54.430Z,0.30
2022-09-17T10:46:29.619Z,0.40
2022-09-17T10:49:08.658Z,0.45
2022-09-17T10:51:37.312Z,0.50
2022-09-17T10:54:12.961Z,0.65
2022-09-17T10:56:47.066Z,0.40
2022-09-17T10:59:47.590Z,0.28
2022-09-17T11:02:32.000Z,0.40
2022-09-17T11:05:10.171Z,0.77
2022-09-17T11:07:48.277Z,0.50
2022-09-17T11:10:28.009Z,0.52
2022-09-17T11:12:57.232Z,0.30
2022-09-17T11:15:53.084Z,0.40
2022-09-17T11:18:51.324Z,0.75
2022-09-17T11:21:26.502Z,0.50
2022-09-17T11:24:21.269Z,0.30
2022-09-17T11:27:06.495Z,0.50
2022-09-17T11:30:33.540Z,0.40
2022-09-17T11:33:07.317Z,0.40
2022-09-17T11:36:04.371Z,0.30
2022-09-17T11:38:43.447Z,0.32
2022-09-17T11:41:31.950Z,0.40
2022-09-17T11:44:24.687Z,0.30
2022-09-17T11:47:17.572Z,0.30
2022-09-17T11:50:00.670Z,0.60
2022-09-17T11:52:35.314Z,0.30
2022-09-17T11:55:18.933Z,0.25
2022-09-17T11:57:47.282Z,0.35
2022-09-17T14:55:57.795Z,0.47
2022-09-17T14:58:36.396Z,0.20
2022-09-17T15:01:03.909Z,0.20
2022-09-17T15:03:30.847Z,0.15
2022-09-17T15:06:01.868Z,0.10
2022-09-17T15:08:30.651Z,0.28
2022-09-17T15:11:02.393Z,0.10
2022-09-17T15:13:41.159Z,0.20
2022-09-17T15:16:20.039Z,0.15
2022-09-17T15:18:55.595Z,0.20
2022-09-17T15:21:42.689Z,0.20
2022-09-17T15:24:35.954Z,0.35
2022-09-17T15:27:25.516Z,0.30
2022-09-17T15:30:21.262Z,0.30
2022-09-17T15:32:57.060Z,0.13
2022-09-17T15:35:30.515Z,0.30
2022-09-17T15:38:22.410Z,0.17
2022-09-17T15:40:49.848Z,0.20
2022-09-17T15:43:17.821Z,0.30
2022-09-17T15:45:44.845Z,0.15
2022-09-17T15:48:35.515Z,0.20
2022-09-17T15:51:04.140Z,0.30
2022-09-17T15:53:34.368Z,0.30
2022-09-17T15:56:13.324Z,0.10
2022-09-17T15:58:43.271Z,0.30
2022-09-17T16:01:16.609Z,0.20
2022-09-17T16:03:46.640Z,0.30
2022-09-17T16:06:19.801Z,0.20
2022-09-17T16:09:02.029Z,0.47
2022-09-17T16:11:31.151Z,0.30
2022-09-17T16:14:01.150Z,0.50
2022-09-17T16:16:36.543Z,0.47
2022-09-17T16:19:05.924Z,0.30
2022-09-17T16:21:32.909Z,0.30
2022-09-17T16:23:59.504Z,0.50
2022-09-17T16:26:32.628Z,0.50
2022-09-17T16:29:06.449Z,0.20
2022-09-17T16:31:34.363Z,0.30
2022-09-17T16:34:03.183Z,0.20
2022-09-17T16:36:32.897Z,0.28
2022-09-17T16:38:59.640Z,0.13
2022-09-17T16:41:26.498Z,0.13
2022-09-17T16:43:53.717Z,0.30
2022-09-17T16:46:20.438Z,0.28
2022-09-17T16:48:50.574Z,0.28
2022-09-17T16:51:18.977Z,0.17
2022-09-17T16:53:46.140Z,0.25
2022-09-17T16:56:15.677Z,0.40
2022-09-17T16:58:43.536Z,0.30
2022-09-17T17:01:16.378Z,0.25
2022-09-17T17:03:46.020Z,0.10
2022-09-17T17:06:17.370Z,0.10
2022-09-17T17:08:46.140Z,0.30
2022-09-17T17:11:13.685Z,0.22
2022-09-17T17:13:43.390Z,0.20
2022-09-17T17:16:13.114Z,0.28
2022-09-17T17:18:45.130Z,0.30
2022-09-17T17:21:14.838Z,0.20
2022-09-17T17:23:47.423Z,0.30
2022-09-17T17:26:18.053Z,0.40
2022-09-17T17:28:45.010Z,0.20
2022-09-17T17:31:13.547Z,0.73
2022-09-17T17:33:41.380Z,0.25
2022-09-17T17:36:08.695Z,1.27
2022-09-17T17:38:36.935Z,4.03
2022-09-17T17:41:11.743Z,1.83
2022-09-17T17:43:39.593Z,0.55
2022-09-17T17:46:09.418Z,1.30
2022-09-17T17:48:37.153Z,1.33
2022-09-17T17:51:09.120Z,0.50
2022-09-17T17:53:36.967Z,1.58
2022-09-17T17:56:06.702Z,0.80
2022-09-17T17:58:34.656Z,0.50
2022-09-17T18:01:11.086Z,0.52
2022-09-17T18:03:38.039Z,0.45
2022-09-17T18:06:07.004Z,0.50
2022-09-17T18:08:37.475Z,0.50
2022-09-17T18:11:05.406Z,0.43
2022-09-17T18:13:32.348Z,1.25
2022-09-17T18:16:01.710Z,0.50
2022-09-17T18:18:47.439Z,0.70
2022-09-17T18:21:19.888Z,0.47
2022-09-17T18:23:47.661Z,0.77
2022-09-17T18:26:28.798Z,0.70
2022-09-17T18:28:56.497Z,0.65
2022-09-17T18:31:25.701Z,0.50
2022-09-17T18:34:00.870Z,0.50
2022-09-17T18:36:30.107Z,0.82
2022-09-17T18:39:16.738Z,0.40
2022-09-17T18:41:49.660Z,0.75
2022-09-17T18:44:19.703Z,0.40
2022-09-17T18:46:48.259Z,0.40
2022-09-17T18:49:15.657Z,0.52
2022-09-17T18:51:42.622Z,0.43
2022-09-17T18:54:12.918Z,0.70
2022-09-17T18:56:42.181Z,0.52
2022-09-17T18:59:10.288Z,0.47
2022-09-17T19:01:37.763Z,0.70
2022-09-17T19:04:07.992Z,0.60
2022-09-17T19:06:36.736Z,0.32
2022-09-17T19:09:05.335Z,0.70
2022-09-17T19:11:36.290Z,0.50
2022-09-17T19:14:03.362Z,0.67
2022-09-17T19:16:30.465Z,0.50
2022-09-17T19:18:57.339Z,0.57
2022-09-17T19:21:26.020Z,0.73
2022-09-17T19:23:52.895Z,0.70
2022-09-17T19:26:23.203Z,0.60
2022-09-17T19:29:05.877Z,0.60
2022-09-17T19:31:33.066Z,0.80
2022-09-17T19:34:00.308Z,0.60
2022-09-17T19:36:28.517Z,0.70
2022-09-17T19:38:55.741Z,0.45
2022-09-17T19:41:25.754Z,0.60
2022-09-17T19:43:54.828Z,0.60
2022-09-17T19:46:24.897Z,0.60
2022-09-17T19:48:54.130Z,0.68
2022-09-17T19:51:22.999Z,1.17
2022-09-17T19:53:50.462Z,0.60
2022-09-17T19:56:23.183Z,0.68
2022-09-17T19:58:50.622Z,0.70
2022-09-17T20:01:18.196Z,0.50
2022-09-17T20:03:47.410Z,0.47
2022-09-17T20:06:16.926Z,0.55
2022-09-17T20:08:47.473Z,0.73
2022-09-17T20:11:19.009Z,0.88
2022-09-17T20:13:45.675Z,0.43
2022-09-17T20:16:16.115Z,0.47
2022-09-17T20:18:46.944Z,0.40
2022-09-17T20:21:22.268Z,0.60
2022-09-17T20:23:49.099Z,0.60
2022-09-17T20:26:17.075Z,0.60
2022-09-17T20:28:44.622Z,0.40
2022-09-17T20:31:15.743Z,0.55
2022-09-17T20:33:43.566Z,0.60
2022-09-17T20:36:15.867Z,0.57
2022-09-17T20:41:37.294Z,1.08
2022-09-17T20:44:04.991Z,1.13
2022-09-17T20:46:31.946Z,2.00
2022-09-17T20:48:59.402Z,1.30
2022-09-17T20:51:28.856Z,2.53
2022-09-17T20:53:57.536Z,1.40
2022-09-17T20:56:30.341Z,0.90
2022-09-17T20:59:08.647Z,1.02
2022-09-17T21:01:38.204Z,1.00
2022-09-17T21:04:09.104Z,0.60
2022-09-17T21:06:38.824Z,0.60
2022-09-17T21:09:07.767Z,0.80
2022-09-17T21:11:35.350Z,0.57
2022-09-17T21:14:03.823Z,0.60
2022-09-17T21:16:32.217Z,0.30
2022-09-17T21:19:02.683Z,0.43
2022-09-17T21:21:34.877Z,0.45
2022-09-17T21:24:03.025Z,0.47
2022-09-17T21:26:30.544Z,0.38
2022-09-17T21:28:57.739Z,0.50
2022-09-17T21:31:33.469Z,0.43
2022-09-17T21:34:11.124Z,0.30
2022-09-17T21:36:39.310Z,0.47
2022-09-17T21:39:17.299Z,0.40
2022-09-17T21:41:45.488Z,0.43
2022-09-17T21:44:12.971Z,0.35
2022-09-17T21:46:42.553Z,0.40
2022-09-17T21:49:10.220Z,0.32
2022-09-17T21:51:42.426Z,0.40
2022-09-17T21:54:16.073Z,0.50
2022-09-17T21:56:46.439Z,0.38
2022-09-17T21:59:16.859Z,0.52
2022-09-17T22:01:47.127Z,0.30
2022-09-17T22:04:18.033Z,0.50
2022-09-17T22:06:46.793Z,0.38
2022-09-17T22:09:17.603Z,0.52
2022-09-17T22:11:46.555Z,0.30
2022-09-17T22:14:16.382Z,0.25
2022-09-17T22:16:45.739Z,0.63
2022-09-17T22:19:16.499Z,0.52
2022-09-17T22:21:48.811Z,0.30
2022-09-17T22:24:19.554Z,0.30
2022-09-17T22:26:54.101Z,0.53
2022-09-17T22:29:23.818Z,0.20
2022-09-17T22:31:50.864Z,0.40
2022-09-17T22:34:20.747Z,0.40
2022-09-17T22:36:52.276Z,0.22
2022-09-17T22:39:22.144Z,0.20
2022-09-17T22:41:50.658Z,0.20
2022-09-17T22:47:00.606Z,0.20
2022-09-17T22:49:28.684Z,0.63
2022-09-17T22:51:55.690Z,0.40
2022-09-17T22:54:23.722Z,0.22
2022-09-17T22:56:50.646Z,0.30
2022-09-17T22:59:19.269Z,0.30
2022-09-17T23:01:45.945Z,0.22
2022-09-17T23:04:13.487Z,0.38
2022-09-17T23:06:44.523Z,0.30
2022-09-17T23:09:13.792Z,0.30
2022-09-17T23:11:40.748Z,0.30
2022-09-17T23:14:09.894Z,0.40
2022-09-17T23:16:39.707Z,0.30
2022-09-17T23:19:10.219Z,0.35
2022-09-17T23:21:38.075Z,0.30
2022-09-17T23:24:04.814Z,0.35
2022-09-17T23:26:31.878Z,0.30
2022-09-17T23:29:04.604Z,0.35
2022-09-17T23:31:35.230Z,0.30
2022-09-17T23:34:02.457Z,0.40
2022-09-17T23:36:33.404Z,0.30
2022-09-17T23:39:04.434Z,0.55
2022-09-17T23:41:33.393Z,0.38
2022-09-17T23:44:02.014Z,0.30
2022-09-17T23:46:31.772Z,0.40
2022-09-17T23:49:01.863Z,0.35
2022-09-17T23:51:31.403Z,0.20
2022-09-17T23:53:59.378Z,0.40
2022-09-17T23:56:28.129Z,0.82
2022-09-17T23:58:59.091Z,0.20
